sensor_id;sensor_type;location;lat;lon;timestamp;temperature;humidity
49052;DHT22;34866;48.670;18.260;2023-03-11T00:02:18;230.60;6502.40
49052;DHT22;34866;48.670;18.260;2023-03-11T00:04:44;230.70;6502.40
49052;DHT22;34866;48.670;18.260;2023-03-11T00:07:10;230.70;6502.40
49052;DHT22;34866;48.670;18.260;2023-03-11T00:09:37;230.70;6502.40
49052;DHT22;34866;48.670;18.260;2023-03-11T00:12:03;230.50;6502.40
49052;DHT22;34866;48.670;18.260;2023-03-11T00:14:29;230.50;6502.40
49052;DHT22;34866;48.670;18.260;2023-03-11T00:16:55;230.40;6502.40
49052;DHT22;34866;48.670;18.260;2023-03-11T00:19:22;230.40;6502.40
49052;DHT22;34866;48.670;18.260;2023-03-11T00:21:49;230.40;6502.40
49052;DHT22;34866;48.670;18.260;2023-03-11T00:24:15;230.40;6502.40
49052;DHT22;34866;48.670;18.260;2023-03-11T00:26:42;230.40;6502.40
49052;DHT22;34866;48.670;18.260;2023-03-11T00:29:07;230.40;6502.40
49052;DHT22;34866;48.670;18.260;2023-03-11T00:31:33;205.70;6502.40
49052;DHT22;34866;48.670;18.260;2023-03-11T00:33:58;205.70;6502.40
49052;DHT22;34866;48.670;18.260;2023-03-11T00:36:31;205.50;6502.40
49052;DHT22;34866;48.670;18.260;2023-03-11T00:39:02;205.60;6502.40
49052;DHT22;34866;48.670;18.260;2023-03-11T00:41:32;205.60;6502.40
49052;DHT22;34866;48.670;18.260;2023-03-11T00:43:58;205.40;6502.40
49052;DHT22;34866;48.670;18.260;2023-03-11T00:46:24;205.30;6502.40
49052;DHT22;34866;48.670;18.260;2023-03-11T00:48:50;205.40;6502.40
49052;DHT22;34866;48.670;18.260;2023-03-11T00:51:16;205.50;6502.40
49052;DHT22;34866;48.670;18.260;2023-03-11T00:53:47;205.30;6502.40
49052;DHT22;34866;48.670;18.260;2023-03-11T00:56:14;205.30;6502.40
49052;DHT22;34866;48.670;18.260;2023-03-11T00:58:42;205.30;6502.40
49052;DHT22;34866;48.670;18.260;2023-03-11T01:01:18;205.20;6502.40
49052;DHT22;34866;48.670;18.260;2023-03-11T01:03:44;205.50;6502.40
49052;DHT22;34866;48.670;18.260;2023-03-11T01:06:12;205.30;6502.40
49052;DHT22;34866;48.670;18.260;2023-03-11T01:08:39;205.50;6502.40
49052;DHT22;34866;48.670;18.260;2023-03-11T01:11:06;205.70;6502.40
49052;DHT22;34866;48.670;18.260;2023-03-11T01:13:33;205.50;6502.40
49052;DHT22;34866;48.670;18.260;2023-03-11T01:16:02;205.40;6502.40
49052;DHT22;34866;48.670;18.260;2023-03-11T01:18:28;205.30;6502.40
49052;DHT22;34866;48.670;18.260;2023-03-11T01:20:54;205.20;6502.40
49052;DHT22;34866;48.670;18.260;2023-03-11T01:23:20;205.20;6502.40
49052;DHT22;34866;48.670;18.260;2023-03-11T01:25:46;205.10;6502.40
49052;DHT22;34866;48.670;18.260;2023-03-11T01:28:12;205.00;6502.40
49052;DHT22;34866;48.670;18.260;2023-03-11T01:30:39;205.40;6502.40
49052;DHT22;34866;48.670;18.260;2023-03-11T01:33:06;205.40;6502.40
49052;DHT22;34866;48.670;18.260;2023-03-11T01:35:34;205.50;6502.40
49052;DHT22;34866;48.670;18.260;2023-03-11T01:38:00;205.50;6502.40
49052;DHT22;34866;48.670;18.260;2023-03-11T01:40:35;205.40;6502.40
49052;DHT22;34866;48.670;18.260;2023-03-11T01:43:03;205.40;6502.40
49052;DHT22;34866;48.670;18.260;2023-03-11T01:48:16;205.30;6502.40
49052;DHT22;34866;48.670;18.260;2023-03-11T01:50:48;205.20;6502.40
49052;DHT22;34866;48.670;18.260;2023-03-11T01:53:15;205.10;6502.40
49052;DHT22;34866;48.670;18.260;2023-03-11T01:55:43;230.80;6502.40
49052;DHT22;34866;48.670;18.260;2023-03-11T01:58:13;205.10;6502.40
49052;DHT22;34866;48.670;18.260;2023-03-11T02:00:41;205.20;256.00
49052;DHT22;34866;48.670;18.260;2023-03-11T02:03:13;205.20;128.00
49052;DHT22;34866;48.670;18.260;2023-03-11T02:05:40;205.20;6502.40
49052;DHT22;34866;48.670;18.260;2023-03-11T02:08:07;205.40;6502.40
49052;DHT22;34866;48.670;18.260;2023-03-11T02:10:33;205.30;6502.40
49052;DHT22;34866;48.670;18.260;2023-03-11T02:12:59;205.30;6502.40
49052;DHT22;34866;48.670;18.260;2023-03-11T02:15:27;205.10;6502.40
49052;DHT22;34866;48.670;18.260;2023-03-11T02:17:53;205.20;6502.40
49052;DHT22;34866;48.670;18.260;2023-03-11T02:23:05;205.10;6502.40
49052;DHT22;34866;48.670;18.260;2023-03-11T02:25:51;205.10;6502.40
49052;DHT22;34866;48.670;18.260;2023-03-11T02:28:18;204.90;6502.40
49052;DHT22;34866;48.670;18.260;2023-03-11T02:30:44;204.90;6502.40
49052;DHT22;34866;48.670;18.260;2023-03-11T02:33:13;204.80;6502.40
49052;DHT22;34866;48.670;18.260;2023-03-11T02:35:39;204.80;6502.40
49052;DHT22;34866;48.670;18.260;2023-03-11T02:38:05;204.90;6502.40
49052;DHT22;34866;48.670;18.260;2023-03-11T02:43:08;179.90;6502.40
49052;DHT22;34866;48.670;18.260;2023-03-11T02:45:37;180.00;230.40
49052;DHT22;34866;48.670;18.260;2023-03-11T02:48:06;204.90;6502.40
49052;DHT22;34866;48.670;18.260;2023-03-11T02:50:34;204.80;6502.40
49052;DHT22;34866;48.670;18.260;2023-03-11T02:53:02;204.90;6502.40
49052;DHT22;34866;48.670;18.260;2023-03-11T02:55:29;204.80;6502.40
49052;DHT22;34866;48.670;18.260;2023-03-11T02:57:55;205.00;6502.40
49052;DHT22;34866;48.670;18.260;2023-03-11T03:00:21;180.10;6502.40
49052;DHT22;34866;48.670;18.260;2023-03-11T03:02:46;204.80;6502.40
49052;DHT22;34866;48.670;18.260;2023-03-11T03:05:17;180.10;6502.40
49052;DHT22;34866;48.670;18.260;2023-03-11T03:07:42;204.80;6502.40
49052;DHT22;34866;48.670;18.260;2023-03-11T03:10:09;180.10;6502.40
49052;DHT22;34866;48.670;18.260;2023-03-11T03:12:36;179.90;6502.40
49052;DHT22;34866;48.670;18.260;2023-03-11T03:15:01;179.70;6502.40
49052;DHT22;34866;48.670;18.260;2023-03-11T03:17:27;179.80;6502.40
49052;DHT22;34866;48.670;18.260;2023-03-11T03:19:53;179.70;6502.40
49052;DHT22;34866;48.670;18.260;2023-03-11T03:22:19;179.50;6502.40
49052;DHT22;34866;48.670;18.260;2023-03-11T03:24:44;179.50;6502.40
49052;DHT22;34866;48.670;18.260;2023-03-11T03:27:10;179.50;6502.40
49052;DHT22;34866;48.670;18.260;2023-03-11T03:29:43;179.40;6502.40
49052;DHT22;34866;48.670;18.260;2023-03-11T03:32:08;179.30;6502.40
49052;DHT22;34866;48.670;18.260;2023-03-11T03:34:34;179.30;6502.40
49052;DHT22;34866;48.670;18.260;2023-03-11T03:37:06;179.30;6502.40
49052;DHT22;34866;48.670;18.260;2023-03-11T03:39:32;154.50;6502.40
49052;DHT22;34866;48.670;18.260;2023-03-11T03:41:58;154.50;6502.40
49052;DHT22;34866;48.670;18.260;2023-03-11T03:44:24;154.50;6502.40
49052;DHT22;34866;48.670;18.260;2023-03-11T03:46:49;154.50;6502.40
49052;DHT22;34866;48.670;18.260;2023-03-11T03:49:15;154.20;6502.40
49052;DHT22;34866;48.670;18.260;2023-03-11T03:51:40;154.10;6502.40
49052;DHT22;34866;48.670;18.260;2023-03-11T03:54:08;153.90;6502.40
49052;DHT22;34866;48.670;18.260;2023-03-11T03:56:33;153.80;6502.40
49052;DHT22;34866;48.670;18.260;2023-03-11T03:58:59;128.90;256.00
49052;DHT22;34866;48.670;18.260;2023-03-11T04:01:24;128.90;6502.40
49052;DHT22;34866;48.670;18.260;2023-03-11T04:03:53;128.80;6502.40
49052;DHT22;34866;48.670;18.260;2023-03-11T04:06:24;128.80;6502.40
49052;DHT22;34866;48.670;18.260;2023-03-11T04:08:51;128.40;128.00
49052;DHT22;34866;48.670;18.260;2023-03-11T04:11:17;128.30;6502.40
49052;DHT22;34866;48.670;18.260;2023-03-11T04:13:43;128.20;6528.00
49052;DHT22;34866;48.670;18.260;2023-03-11T04:16:13;128.20;6502.40
49052;DHT22;34866;48.670;18.260;2023-03-11T04:18:40;103.30;6476.80
49052;DHT22;34866;48.670;18.260;2023-03-11T04:21:09;103.20;6476.80
49052;DHT22;34866;48.670;18.260;2023-03-11T04:23:35;103.20;6476.80
49052;DHT22;34866;48.670;18.260;2023-03-11T04:26:01;103.00;6476.80
49052;DHT22;34866;48.670;18.260;2023-03-11T04:28:27;103.00;6476.80
49052;DHT22;34866;48.670;18.260;2023-03-11T04:30:54;102.90;6476.80
49052;DHT22;34866;48.670;18.260;2023-03-11T04:33:19;103.00;6476.80
49052;DHT22;34866;48.670;18.260;2023-03-11T04:35:45;102.90;6476.80
49052;DHT22;34866;48.670;18.260;2023-03-11T04:38:11;102.90;6476.80
49052;DHT22;34866;48.670;18.260;2023-03-11T04:40:37;102.80;6476.80
49052;DHT22;34866;48.670;18.260;2023-03-11T04:43:03;102.80;6476.80
49052;DHT22;34866;48.670;18.260;2023-03-11T04:45:32;102.80;6476.80
49052;DHT22;34866;48.670;18.260;2023-03-11T04:47:57;102.80;6476.80
49052;DHT22;34866;48.670;18.260;2023-03-11T04:50:23;102.70;6476.80
49052;DHT22;34866;48.670;18.260;2023-03-11T04:52:49;102.60;6476.80
49052;DHT22;34866;48.670;18.260;2023-03-11T04:55:15;102.60;486.40
49052;DHT22;34866;48.670;18.260;2023-03-11T04:57:41;102.40;6476.80
49052;DHT22;34866;48.670;18.260;2023-03-11T05:00:13;77.70;6476.80
49052;DHT22;34866;48.670;18.260;2023-03-11T05:02:40;77.50;6476.80
49052;DHT22;34866;48.670;18.260;2023-03-11T05:05:07;77.50;6476.80
49052;DHT22;34866;48.670;18.260;2023-03-11T05:07:34;77.40;6476.80
49052;DHT22;34866;48.670;18.260;2023-03-11T05:10:03;77.30;6476.80
49052;DHT22;34866;48.670;18.260;2023-03-11T05:12:28;77.20;6476.80
49052;DHT22;34866;48.670;18.260;2023-03-11T05:14:54;77.20;6476.80
49052;DHT22;34866;48.670;18.260;2023-03-11T05:17:20;77.00;6476.80
49052;DHT22;34866;48.670;18.260;2023-03-11T05:19:45;77.00;6476.80
49052;DHT22;34866;48.670;18.260;2023-03-11T05:22:11;76.90;6476.80
49052;DHT22;34866;48.670;18.260;2023-03-11T05:24:37;76.80;6476.80
49052;DHT22;34866;48.670;18.260;2023-03-11T05:27:04;52.10;6476.80
49052;DHT22;34866;48.670;18.260;2023-03-11T05:29:30;52.00;6476.80
49052;DHT22;34866;48.670;18.260;2023-03-11T05:31:56;51.90;6476.80
49052;DHT22;34866;48.670;18.260;2023-03-11T05:34:23;52.00;6476.80
49052;DHT22;34866;48.670;18.260;2023-03-11T05:36:49;51.90;6476.80
49052;DHT22;34866;48.670;18.260;2023-03-11T05:39:14;51.90;6476.80
49052;DHT22;34866;48.670;18.260;2023-03-11T05:41:40;52.00;6476.80
49052;DHT22;34866;48.670;18.260;2023-03-11T05:44:11;52.00;6476.80
49052;DHT22;34866;48.670;18.260;2023-03-11T05:46:36;52.00;6476.80
49052;DHT22;34866;48.670;18.260;2023-03-11T05:49:05;51.90;6476.80
49052;DHT22;34866;48.670;18.260;2023-03-11T05:51:31;51.90;6476.80
49052;DHT22;34866;48.670;18.260;2023-03-11T05:53:57;51.90;6476.80
49052;DHT22;34866;48.670;18.260;2023-03-11T05:56:28;51.90;6476.80
49052;DHT22;34866;48.670;18.260;2023-03-11T05:58:56;52.00;6476.80
49052;DHT22;34866;48.670;18.260;2023-03-11T06:01:22;51.90;6476.80
49052;DHT22;34866;48.670;18.260;2023-03-11T06:03:48;51.90;6502.40
49052;DHT22;34866;48.670;18.260;2023-03-11T06:06:14;51.80;256.00
49052;DHT22;34866;48.670;18.260;2023-03-11T06:08:39;51.70;435.20
49052;DHT22;34866;48.670;18.260;2023-03-11T06:11:10;51.50;768.00
49052;DHT22;34866;48.670;18.260;2023-03-11T06:13:36;51.50;947.20
49052;DHT22;34866;48.670;18.260;2023-03-11T06:16:03;51.40;1203.20
49052;DHT22;34866;48.670;18.260;2023-03-11T06:18:28;51.40;1228.80
49052;DHT22;34866;48.670;18.260;2023-03-11T06:20:57;51.50;1280.00
49052;DHT22;34866;48.670;18.260;2023-03-11T06:23:24;51.70;1433.60
49052;DHT22;34866;48.670;18.260;2023-03-11T06:26:11;51.80;1459.20
49052;DHT22;34866;48.670;18.260;2023-03-11T06:28:38;51.80;793.60
49052;DHT22;34866;48.670;18.260;2023-03-11T06:31:16;51.80;358.40
49052;DHT22;34866;48.670;18.260;2023-03-11T06:33:44;51.90;332.80
49052;DHT22;34866;48.670;18.260;2023-03-11T06:36:12;51.90;204.80
49052;DHT22;34866;48.670;18.260;2023-03-11T06:38:38;51.90;6476.80
49052;DHT22;34866;48.670;18.260;2023-03-11T06:41:05;52.00;6476.80
49052;DHT22;34866;48.670;18.260;2023-03-11T06:43:31;51.90;6476.80
49052;DHT22;34866;48.670;18.260;2023-03-11T06:45:57;52.10;6476.80
49052;DHT22;34866;48.670;18.260;2023-03-11T06:48:25;52.00;6476.80
49052;DHT22;34866;48.670;18.260;2023-03-11T06:50:58;52.00;6476.80
49052;DHT22;34866;48.670;18.260;2023-03-11T06:53:26;51.90;6476.80
49052;DHT22;34866;48.670;18.260;2023-03-11T06:56:03;51.90;6476.80
49052;DHT22;34866;48.670;18.260;2023-03-11T06:58:31;51.90;6476.80
49052;DHT22;34866;48.670;18.260;2023-03-11T07:01:20;52.00;6476.80
49052;DHT22;34866;48.670;18.260;2023-03-11T07:03:47;52.00;6476.80
49052;DHT22;34866;48.670;18.260;2023-03-11T07:06:21;52.00;6476.80
49052;DHT22;34866;48.670;18.260;2023-03-11T07:08:49;51.80;512.00
49052;DHT22;34866;48.670;18.260;2023-03-11T07:11:23;51.80;844.80
49052;DHT22;34866;48.670;18.260;2023-03-11T07:13:50;51.90;896.00
49052;DHT22;34866;48.670;18.260;2023-03-11T07:16:18;51.90;870.40
49052;DHT22;34866;48.670;18.260;2023-03-11T07:18:46;51.90;1331.20
49052;DHT22;34866;48.670;18.260;2023-03-11T07:21:16;51.80;844.80
49052;DHT22;34866;48.670;18.260;2023-03-11T07:23:42;51.90;998.40
49052;DHT22;34866;48.670;18.260;2023-03-11T07:26:10;51.90;844.80
49052;DHT22;34866;48.670;18.260;2023-03-11T07:28:36;52.10;384.00
49052;DHT22;34866;48.670;18.260;2023-03-11T07:31:13;52.10;281.60
49052;DHT22;34866;48.670;18.260;2023-03-11T07:33:43;52.00;256.00
49052;DHT22;34866;48.670;18.260;2023-03-11T07:36:13;52.00;614.40
49052;DHT22;34866;48.670;18.260;2023-03-11T07:38:39;51.90;588.80
49052;DHT22;34866;48.670;18.260;2023-03-11T07:41:06;52.10;716.80
49052;DHT22;34866;48.670;18.260;2023-03-11T07:43:32;52.00;409.60
49052;DHT22;34866;48.670;18.260;2023-03-11T07:46:09;52.10;768.00
49052;DHT22;34866;48.670;18.260;2023-03-11T07:48:36;52.10;870.40
49052;DHT22;34866;48.670;18.260;2023-03-11T07:51:09;52.00;768.00
49052;DHT22;34866;48.670;18.260;2023-03-11T07:53:35;52.10;614.40
49052;DHT22;34866;48.670;18.260;2023-03-11T07:56:02;77.00;998.40
49052;DHT22;34866;48.670;18.260;2023-03-11T07:58:28;77.00;1408.00
49052;DHT22;34866;48.670;18.260;2023-03-11T08:00:55;52.10;947.20
49052;DHT22;34866;48.670;18.260;2023-03-11T08:03:23;76.90;1075.20
49052;DHT22;34866;48.670;18.260;2023-03-11T08:05:49;76.90;947.20
49052;DHT22;34866;48.670;18.260;2023-03-11T08:08:15;76.80;1049.60
49052;DHT22;34866;48.670;18.260;2023-03-11T08:10:40;52.10;1664.00
49052;DHT22;34866;48.670;18.260;2023-03-11T08:13:06;77.00;1817.60
49052;DHT22;34866;48.670;18.260;2023-03-11T08:15:32;52.10;1817.60
49052;DHT22;34866;48.670;18.260;2023-03-11T08:17:58;52.00;1868.80
49052;DHT22;34866;48.670;18.260;2023-03-11T08:20:23;52.10;1817.60
49052;DHT22;34866;48.670;18.260;2023-03-11T08:22:49;52.00;1817.60
49052;DHT22;34866;48.670;18.260;2023-03-11T08:25:15;51.90;1971.20
49052;DHT22;34866;48.670;18.260;2023-03-11T08:27:41;51.80;1587.20
49052;DHT22;34866;48.670;18.260;2023-03-11T08:30:07;51.90;1920.00
49052;DHT22;34866;48.670;18.260;2023-03-11T08:32:33;52.00;1996.80
49052;DHT22;34866;48.670;18.260;2023-03-11T08:34:59;51.70;2073.60
49052;DHT22;34866;48.670;18.260;2023-03-11T08:37:25;51.80;2227.20
49052;DHT22;34866;48.670;18.260;2023-03-11T08:39:51;51.70;2227.20
49052;DHT22;34866;48.670;18.260;2023-03-11T08:42:18;51.70;2227.20
49052;DHT22;34866;48.670;18.260;2023-03-11T08:44:46;52.00;2227.20
49052;DHT22;34866;48.670;18.260;2023-03-11T08:47:13;51.90;2227.20
49052;DHT22;34866;48.670;18.260;2023-03-11T08:49:39;51.90;2227.20
49052;DHT22;34866;48.670;18.260;2023-03-11T08:52:05;51.90;2227.20
49052;DHT22;34866;48.670;18.260;2023-03-11T08:54:31;51.90;2227.20
49052;DHT22;34866;48.670;18.260;2023-03-11T08:56:57;51.90;2227.20
49052;DHT22;34866;48.670;18.260;2023-03-11T08:59:28;51.90;2227.20
49052;DHT22;34866;48.670;18.260;2023-03-11T09:01:54;52.00;2227.20
49052;DHT22;34866;48.670;18.260;2023-03-11T09:04:19;77.40;2227.20
49052;DHT22;34866;48.670;18.260;2023-03-11T09:06:45;52.00;2227.20
49052;DHT22;34866;48.670;18.260;2023-03-11T09:09:14;52.00;2227.20
49052;DHT22;34866;48.670;18.260;2023-03-11T09:11:41;52.00;2227.20
49052;DHT22;34866;48.670;18.260;2023-03-11T09:14:07;51.90;2227.20
49052;DHT22;34866;48.670;18.260;2023-03-11T09:16:33;51.90;2227.20
49052;DHT22;34866;48.670;18.260;2023-03-11T09:18:59;51.90;2227.20
49052;DHT22;34866;48.670;18.260;2023-03-11T09:21:28;51.70;2227.20
49052;DHT22;34866;48.670;18.260;2023-03-11T09:23:53;51.70;2227.20
49052;DHT22;34866;48.670;18.260;2023-03-11T09:26:19;51.50;2227.20
49052;DHT22;34866;48.670;18.260;2023-03-11T09:28:46;51.60;2227.20
49052;DHT22;34866;48.670;18.260;2023-03-11T09:31:14;51.40;2227.20
49052;DHT22;34866;48.670;18.260;2023-03-11T09:33:42;51.50;2227.20
49052;DHT22;34866;48.670;18.260;2023-03-11T09:36:16;51.60;2227.20
49052;DHT22;34866;48.670;18.260;2023-03-11T09:38:43;51.50;2227.20
49052;DHT22;34866;48.670;18.260;2023-03-11T09:44:00;51.70;2124.80
49052;DHT22;34866;48.670;18.260;2023-03-11T09:52:13;52.00;1203.20
49052;DHT22;34866;48.670;18.260;2023-03-11T09:54:46;52.00;1664.00
49052;DHT22;34866;48.670;18.260;2023-03-11T09:57:16;52.10;1510.40
49052;DHT22;34866;48.670;18.260;2023-03-11T09:59:44;76.80;1228.80
49052;DHT22;34866;48.670;18.260;2023-03-11T10:02:17;76.80;409.60
49052;DHT22;34866;48.670;18.260;2023-03-11T10:07:30;76.90;947.20
49052;DHT22;34866;48.670;18.260;2023-03-11T10:09:58;77.00;537.60
49052;DHT22;34866;48.670;18.260;2023-03-11T10:18:03;76.80;307.20
49052;DHT22;34866;48.670;18.260;2023-03-11T10:20:54;77.00;6528.00
49052;DHT22;34866;48.670;18.260;2023-03-11T10:26:34;77.20;6476.80
49052;DHT22;34866;48.670;18.260;2023-03-11T10:32:17;77.30;6476.80
49052;DHT22;34866;48.670;18.260;2023-03-11T10:39:48;77.70;6476.80
49052;DHT22;34866;48.670;18.260;2023-03-11T10:42:20;77.70;6476.80
49052;DHT22;34866;48.670;18.260;2023-03-11T10:44:46;102.40;6476.80
49052;DHT22;34866;48.670;18.260;2023-03-11T10:47:21;102.40;6476.80
49052;DHT22;34866;48.670;18.260;2023-03-11T10:49:47;77.70;6476.80
49052;DHT22;34866;48.670;18.260;2023-03-11T10:52:14;102.60;6476.80
49052;DHT22;34866;48.670;18.260;2023-03-11T10:54:45;102.40;6476.80
49052;DHT22;34866;48.670;18.260;2023-03-11T10:57:25;102.40;6476.80
49052;DHT22;34866;48.670;18.260;2023-03-11T11:00:04;102.60;6476.80
49052;DHT22;34866;48.670;18.260;2023-03-11T11:02:50;102.50;6476.80
49052;DHT22;34866;48.670;18.260;2023-03-11T11:07:43;77.60;6476.80
49052;DHT22;34866;48.670;18.260;2023-03-11T11:10:24;77.70;6476.80
49052;DHT22;34866;48.670;18.260;2023-03-11T11:13:01;77.70;6476.80
49052;DHT22;34866;48.670;18.260;2023-03-11T11:15:58;77.70;6476.80
49052;DHT22;34866;48.670;18.260;2023-03-11T11:18:34;102.40;6476.80
49052;DHT22;34866;48.670;18.260;2023-03-11T11:21:05;77.70;6476.80
49052;DHT22;34866;48.670;18.260;2023-03-11T11:23:32;77.70;6476.80
49052;DHT22;34866;48.670;18.260;2023-03-11T11:26:02;77.60;6476.80
49052;DHT22;34866;48.670;18.260;2023-03-11T11:28:30;77.70;6476.80
49052;DHT22;34866;48.670;18.260;2023-03-11T11:36:17;77.70;6476.80
49052;DHT22;34866;48.670;18.260;2023-03-11T11:38:43;102.90;6476.80
49052;DHT22;34866;48.670;18.260;2023-03-11T11:41:15;102.50;6476.80
49052;DHT22;34866;48.670;18.260;2023-03-11T11:43:51;103.20;6476.80
49052;DHT22;34866;48.670;18.260;2023-03-11T11:46:18;77.70;6476.80
49052;DHT22;34866;48.670;18.260;2023-03-11T11:51:32;77.50;6476.80
49052;DHT22;34866;48.670;18.260;2023-03-11T11:56:42;77.40;6476.80
49052;DHT22;34866;48.670;18.260;2023-03-11T11:59:18;77.40;6476.80
49052;DHT22;34866;48.670;18.260;2023-03-11T12:10:57;77.40;6476.80
49052;DHT22;34866;48.670;18.260;2023-03-11T12:18:55;77.50;6476.80
49052;DHT22;34866;48.670;18.260;2023-03-11T12:24:26;77.50;6476.80
49052;DHT22;34866;48.670;18.260;2023-03-11T12:26:53;77.70;6476.80
49052;DHT22;34866;48.670;18.260;2023-03-11T12:29:30;77.60;6476.80
49052;DHT22;34866;48.670;18.260;2023-03-11T12:31:59;77.70;6476.80
49052;DHT22;34866;48.670;18.260;2023-03-11T12:34:26;102.50;6476.80
49052;DHT22;34866;48.670;18.260;2023-03-11T12:36:56;102.60;6476.80
49052;DHT22;34866;48.670;18.260;2023-03-11T12:39:26;102.70;6476.80
49052;DHT22;34866;48.670;18.260;2023-03-11T12:42:14;102.60;6476.80
49052;DHT22;34866;48.670;18.260;2023-03-11T12:44:41;102.60;6476.80
49052;DHT22;34866;48.670;18.260;2023-03-11T12:49:52;102.40;6476.80
49052;DHT22;34866;48.670;18.260;2023-03-11T12:52:24;102.70;6476.80
49052;DHT22;34866;48.670;18.260;2023-03-11T13:00:21;102.60;6476.80
49052;DHT22;34866;48.670;18.260;2023-03-11T13:03:13;102.60;6476.80
49052;DHT22;34866;48.670;18.260;2023-03-11T13:05:59;102.60;6476.80
49052;DHT22;34866;48.670;18.260;2023-03-11T13:08:49;102.70;6476.80
49052;DHT22;34866;48.670;18.260;2023-03-11T13:16:43;102.70;6476.80
49052;DHT22;34866;48.670;18.260;2023-03-11T13:21:58;102.90;6476.80
49052;DHT22;34866;48.670;18.260;2023-03-11T13:29:38;103.00;6476.80
49052;DHT22;34866;48.670;18.260;2023-03-11T13:40:53;102.90;6476.80
49052;DHT22;34866;48.670;18.260;2023-03-11T13:43:21;102.80;6476.80
49052;DHT22;34866;48.670;18.260;2023-03-11T13:46:00;102.80;6476.80
49052;DHT22;34866;48.670;18.260;2023-03-11T13:48:35;102.50;6476.80
49052;DHT22;34866;48.670;18.260;2023-03-11T13:56:25;102.50;6476.80
49052;DHT22;34866;48.670;18.260;2023-03-11T13:58:52;102.50;6476.80
49052;DHT22;34866;48.670;18.260;2023-03-11T14:01:18;77.70;6476.80
49052;DHT22;34866;48.670;18.260;2023-03-11T14:03:46;77.70;6476.80
49052;DHT22;34866;48.670;18.260;2023-03-11T14:06:15;77.70;6476.80
49052;DHT22;34866;48.670;18.260;2023-03-11T14:08:42;77.70;6476.80
49052;DHT22;34866;48.670;18.260;2023-03-11T14:11:16;77.70;6476.80
49052;DHT22;34866;48.670;18.260;2023-03-11T14:13:49;77.70;6476.80
49052;DHT22;34866;48.670;18.260;2023-03-11T14:16:33;77.70;6476.80
49052;DHT22;34866;48.670;18.260;2023-03-11T14:19:15;77.70;6476.80
49052;DHT22;34866;48.670;18.260;2023-03-11T14:21:42;102.40;6476.80
49052;DHT22;34866;48.670;18.260;2023-03-11T14:24:16;102.50;6476.80
49052;DHT22;34866;48.670;18.260;2023-03-11T14:26:44;102.40;6476.80
49052;DHT22;34866;48.670;18.260;2023-03-11T14:29:28;102.40;6476.80
49052;DHT22;34866;48.670;18.260;2023-03-11T14:31:56;77.70;6476.80
49052;DHT22;34866;48.670;18.260;2023-03-11T14:34:27;77.60;6476.80
49052;DHT22;34866;48.670;18.260;2023-03-11T14:36:55;77.60;6476.80
49052;DHT22;34866;48.670;18.260;2023-03-11T14:39:37;77.70;6476.80
49052;DHT22;34866;48.670;18.260;2023-03-11T14:42:23;77.70;6476.80
49052;DHT22;34866;48.670;18.260;2023-03-11T14:44:56;77.70;6476.80
49052;DHT22;34866;48.670;18.260;2023-03-11T14:50:21;77.60;6476.80
49052;DHT22;34866;48.670;18.260;2023-03-11T14:55:50;77.40;6476.80
49052;DHT22;34866;48.670;18.260;2023-03-11T15:06:16;77.40;6476.80
49052;DHT22;34866;48.670;18.260;2023-03-11T15:08:58;77.40;6476.80
49052;DHT22;34866;48.670;18.260;2023-03-11T15:11:26;77.40;6476.80
49052;DHT22;34866;48.670;18.260;2023-03-11T15:13:54;77.40;6476.80
49052;DHT22;34866;48.670;18.260;2023-03-11T15:16:32;77.50;6476.80
49052;DHT22;34866;48.670;18.260;2023-03-11T15:22:04;77.40;6476.80
49052;DHT22;34866;48.670;18.260;2023-03-11T15:24:32;77.50;384.00
49052;DHT22;34866;48.670;18.260;2023-03-11T15:29:54;77.70;6476.80
49052;DHT22;34866;48.670;18.260;2023-03-11T15:32:40;153.60;6502.40
49052;DHT22;34866;48.670;18.260;2023-03-11T15:37:33;153.70;6502.40
49052;DHT22;34866;48.670;18.260;2023-03-11T15:40:32;179.70;6502.40
49052;DHT22;34866;48.670;18.260;2023-03-11T15:45:42;180.10;6502.40
49052;DHT22;34866;48.670;18.260;2023-03-11T15:48:13;204.80;6502.40
49052;DHT22;34866;48.670;18.260;2023-03-11T15:50:51;205.20;6502.40
49052;DHT22;34866;48.670;18.260;2023-03-11T15:53:18;205.10;6502.40
49052;DHT22;34866;48.670;18.260;2023-03-11T15:55:45;205.10;6502.40
49052;DHT22;34866;48.670;18.260;2023-03-11T15:58:14;179.20;6502.40
49052;DHT22;34866;48.670;18.260;2023-03-11T16:00:45;102.60;6476.80
49052;DHT22;34866;48.670;18.260;2023-03-11T16:03:11;77.50;6476.80
49052;DHT22;34866;48.670;18.260;2023-03-11T16:05:40;77.40;6476.80
49052;DHT22;34866;48.670;18.260;2023-03-11T16:08:06;77.40;6476.80
49052;DHT22;34866;48.670;18.260;2023-03-11T16:10:38;77.30;6476.80
49052;DHT22;34866;48.670;18.260;2023-03-11T16:13:04;77.20;128.00
49052;DHT22;34866;48.670;18.260;2023-03-11T16:15:35;77.20;6502.40
49052;DHT22;34866;48.670;18.260;2023-03-11T16:18:04;77.10;6502.40
49052;DHT22;34866;48.670;18.260;2023-03-11T16:20:37;77.10;409.60
49052;DHT22;34866;48.670;18.260;2023-03-11T16:23:06;77.10;6476.80
49052;DHT22;34866;48.670;18.260;2023-03-11T16:25:35;77.00;6476.80
49052;DHT22;34866;48.670;18.260;2023-03-11T16:28:01;76.90;6476.80
49052;DHT22;34866;48.670;18.260;2023-03-11T16:30:29;76.90;6476.80
49052;DHT22;34866;48.670;18.260;2023-03-11T16:33:01;76.90;6476.80
49052;DHT22;34866;48.670;18.260;2023-03-11T16:35:27;76.80;6476.80
49052;DHT22;34866;48.670;18.260;2023-03-11T16:37:53;76.90;6476.80
49052;DHT22;34866;48.670;18.260;2023-03-11T16:40:21;76.80;6476.80
49052;DHT22;34866;48.670;18.260;2023-03-11T16:42:50;76.80;6476.80
49052;DHT22;34866;48.670;18.260;2023-03-11T16:45:18;52.10;6476.80
49052;DHT22;34866;48.670;18.260;2023-03-11T16:47:44;52.10;6476.80
49052;DHT22;34866;48.670;18.260;2023-03-11T16:50:10;52.10;6476.80
49052;DHT22;34866;48.670;18.260;2023-03-11T16:52:36;52.10;6476.80
49052;DHT22;34866;48.670;18.260;2023-03-11T16:55:02;52.10;6476.80
49052;DHT22;34866;48.670;18.260;2023-03-11T16:57:28;52.00;6476.80
49052;DHT22;34866;48.670;18.260;2023-03-11T16:59:54;52.00;6476.80
49052;DHT22;34866;48.670;18.260;2023-03-11T17:02:20;52.00;6476.80